Rain radar more information rain snow radar


Visit our other weather sites:

Template documentation
and downloads

And another site



Nearby METAR Reports

   
KTIW - Tacoma, Washington, USA
Distance from station: W 7 mi
Updated: Oct 14 2019 9:53 am
Partly Cloudy  
Partly Cloudy  
   Wind: West 3.5 mph
Wind: West 3.5 mph
Temperature: 46.4°F
Wind Chill: 44.6°F
Dew Point: 44.6°F
Humidity: 93%
Barometer: 30.12 inHg
Clouds: Partly Cloudy
Visibility: 10 mi
Cloud details: Partly Cloudy 213 m
KTIW 141653Z 27003KT 10SM SCT007 08/07 A3012 RMK AO2 SLP200 T00830067 $
KTCM - Tacoma/Mc Chord, Washington, USA
Distance from station: S 9 mi
Updated: Oct 14 2019 9:58 am
Partly Cloudy  
Partly Cloudy  
   Wind: Calm
Wind: Calm
Temperature: 48.2°F
Dew Point: 48.2°F
Humidity: 100%
Barometer: 30.12 inHg
Clouds: Partly Cloudy
Visibility: 10 mi
Cloud details: Partly Cloudy 3962 m
KTCM 141658Z AUTO 00000KT 10SM SCT130 09/09 A3012 RMK AO2 SLP204 T00860086 $
KSEA - Seattle/Metro, Washington, USA
Distance from station: NNE 15 mi
Updated: Oct 14 2019 9:53 am
Mostly Cloudy  
Mostly Cloudy  
   Wind: SSE 5.8 mph
Wind: SSE 5.8 mph
Temperature: 51.8°F
Dew Point: 44.6°F
Humidity: 77%
Barometer: 30.12 inHg
Clouds: Mostly Cloudy
Visibility: 10 mi
Cloud details: Few Clouds 152 m,
Partly Cloudy 1524 m,
Mostly Cloudy 5182 m
KSEA 141653Z 16005KT 10SM FEW005 SCT050 BKN170 11/07 A3012 RMK AO2 SLP206 T01060067
KBFI - Seattle/Boeing, Washington, USA
Distance from station: NNE 21 mi
Updated: Oct 14 2019 9:53 am
Clear  
Clear  
   Wind: SSE 4.6 mph
Wind: SSE 4.6 mph
Temperature: 51.8°F
Dew Point: 44.6°F
Humidity: 77%
Barometer: 30.13 inHg
Clouds: Clear
Visibility: 10 mi
Cloud details: Clear m
KBFI 141653Z 15004KT 10SM CLR 11/07 A3013 RMK AO2 SLP201 T01060067
KOLM - Olympia, Washington, USA
Distance from station: SW 29 mi
Updated: Oct 14 2019 9:54 am
Partly Cloudy  
Partly Cloudy  
   Wind: Calm
Wind: Calm
Temperature: 44.6°F
Dew Point: 42.8°F
Humidity: 93%
Barometer: 30.12 inHg
Clouds: Partly Cloudy
Visibility: 10 mi
Cloud details: Few Clouds 305 m,
Partly Cloudy 549 m
KOLM 141654Z 00000KT 10SM FEW010 SCT018 07/06 A3012 RMK AO2 SLP200 T00670056
 

Script developed by  Saratoga-weather.org Adapted for the template by  Weerstation Leuven

You find our weather info also at:

Weather Underground

WeatherlinkIP

Citizen Weather Observer Program (CWOP)

Equipment we use:

Weather-station
Davis VP2

Weather-program
Meteobridge

Provider
MDD Hosting

Davis VP2

Meteobridge

MDD Hosting